sensor_id;sensor_type;location;lat;lon;timestamp;P1;durP1;ratioP1;P2;durP2;ratioP2
41512;SDS011;27244;59.940;30.280;2023-06-24T00:02:19;6.72;;;2.53;;
41512;SDS011;27244;59.940;30.280;2023-06-24T00:04:49;5.82;;;2.90;;
41512;SDS011;27244;59.940;30.280;2023-06-24T00:07:17;5.22;;;2.50;;
41512;SDS011;27244;59.940;30.280;2023-06-24T00:09:46;6.35;;;2.45;;
41512;SDS011;27244;59.940;30.280;2023-06-24T00:12:14;6.43;;;2.60;;
41512;SDS011;27244;59.940;30.280;2023-06-24T00:14:44;5.55;;;2.47;;
41512;SDS011;27244;59.940;30.280;2023-06-24T00:17:11;4.82;;;2.40;;
41512;SDS011;27244;59.940;30.280;2023-06-24T00:19:38;6.47;;;2.40;;
41512;SDS011;27244;59.940;30.280;2023-06-24T00:22:05;5.60;;;2.65;;
41512;SDS011;27244;59.940;30.280;2023-06-24T00:24:32;4.78;;;2.72;;
41512;SDS011;27244;59.940;30.280;2023-06-24T00:26:59;7.05;;;2.70;;
41512;SDS011;27244;59.940;30.280;2023-06-24T00:29:28;4.35;;;2.40;;
41512;SDS011;27244;59.940;30.280;2023-06-24T00:31:55;4.45;;;2.10;;
41512;SDS011;27244;59.940;30.280;2023-06-24T00:34:22;5.70;;;2.50;;
41512;SDS011;27244;59.940;30.280;2023-06-24T00:36:50;4.00;;;2.25;;
41512;SDS011;27244;59.940;30.280;2023-06-24T00:39:18;3.20;;;2.05;;
41512;SDS011;27244;59.940;30.280;2023-06-24T00:41:45;5.88;;;2.35;;
41512;SDS011;27244;59.940;30.280;2023-06-24T00:44:12;4.95;;;2.30;;
41512;SDS011;27244;59.940;30.280;2023-06-24T00:46:41;6.07;;;2.63;;
41512;SDS011;27244;59.940;30.280;2023-06-24T00:49:09;7.07;;;2.47;;
41512;SDS011;27244;59.940;30.280;2023-06-24T00:51:39;4.35;;;2.33;;
41512;SDS011;27244;59.940;30.280;2023-06-24T00:54:12;5.53;;;2.83;;
41512;SDS011;27244;59.940;30.280;2023-06-24T00:56:39;4.45;;;2.38;;
41512;SDS011;27244;59.940;30.280;2023-06-24T00:59:08;5.82;;;2.88;;
41512;SDS011;27244;59.940;30.280;2023-06-24T01:01:39;4.78;;;2.20;;
41512;SDS011;27244;59.940;30.280;2023-06-24T01:04:08;4.03;;;1.88;;
41512;SDS011;27244;59.940;30.280;2023-06-24T01:06:35;5.15;;;2.40;;
41512;SDS011;27244;59.940;30.280;2023-06-24T01:09:08;4.13;;;2.45;;
41512;SDS011;27244;59.940;30.280;2023-06-24T01:11:36;3.28;;;1.90;;
41512;SDS011;27244;59.940;30.280;2023-06-24T01:14:03;6.45;;;2.38;;
41512;SDS011;27244;59.940;30.280;2023-06-24T01:16:32;4.32;;;2.50;;
41512;SDS011;27244;59.940;30.280;2023-06-24T01:19:12;4.47;;;2.38;;
41512;SDS011;27244;59.940;30.280;2023-06-24T01:22:00;4.93;;;2.13;;
41512;SDS011;27244;59.940;30.280;2023-06-24T01:24:42;4.68;;;2.40;;
41512;SDS011;27244;59.940;30.280;2023-06-24T01:27:19;3.35;;;2.25;;
41512;SDS011;27244;59.940;30.280;2023-06-24T01:30:17;4.47;;;2.67;;
41512;SDS011;27244;59.940;30.280;2023-06-24T01:33:03;3.53;;;1.90;;
41512;SDS011;27244;59.940;30.280;2023-06-24T01:35:33;4.50;;;2.25;;
41512;SDS011;27244;59.940;30.280;2023-06-24T01:38:04;4.35;;;2.20;;
41512;SDS011;27244;59.940;30.280;2023-06-24T01:40:37;3.60;;;1.90;;
41512;SDS011;27244;59.940;30.280;2023-06-24T01:43:08;4.32;;;2.20;;
41512;SDS011;27244;59.940;30.280;2023-06-24T01:45:37;4.30;;;2.05;;
41512;SDS011;27244;59.940;30.280;2023-06-24T01:48:11;3.42;;;1.90;;
41512;SDS011;27244;59.940;30.280;2023-06-24T01:50:42;4.50;;;2.65;;
41512;SDS011;27244;59.940;30.280;2023-06-24T01:53:16;2.45;;;1.77;;
41512;SDS011;27244;59.940;30.280;2023-06-24T01:55:45;3.75;;;1.88;;
41512;SDS011;27244;59.940;30.280;2023-06-24T01:58:16;7.35;;;2.60;;
41512;SDS011;27244;59.940;30.280;2023-06-24T02:00:44;5.50;;;2.25;;
41512;SDS011;27244;59.940;30.280;2023-06-24T02:03:12;3.22;;;1.95;;
41512;SDS011;27244;59.940;30.280;2023-06-24T02:05:41;4.25;;;2.17;;
41512;SDS011;27244;59.940;30.280;2023-06-24T02:08:10;3.53;;;2.03;;
41512;SDS011;27244;59.940;30.280;2023-06-24T02:10:39;2.95;;;1.90;;
41512;SDS011;27244;59.940;30.280;2023-06-24T02:13:07;5.18;;;2.47;;
41512;SDS011;27244;59.940;30.280;2023-06-24T02:15:36;4.35;;;2.20;;
41512;SDS011;27244;59.940;30.280;2023-06-24T02:18:05;4.32;;;2.10;;
41512;SDS011;27244;59.940;30.280;2023-06-24T02:20:36;3.25;;;1.58;;
41512;SDS011;27244;59.940;30.280;2023-06-24T02:23:05;3.30;;;2.10;;
41512;SDS011;27244;59.940;30.280;2023-06-24T02:25:33;3.38;;;2.33;;
41512;SDS011;27244;59.940;30.280;2023-06-24T02:28:04;4.03;;;2.13;;
41512;SDS011;27244;59.940;30.280;2023-06-24T02:30:34;2.20;;;1.63;;
41512;SDS011;27244;59.940;30.280;2023-06-24T02:33:02;2.83;;;1.70;;
41512;SDS011;27244;59.940;30.280;2023-06-24T02:35:30;4.70;;;2.00;;
41512;SDS011;27244;59.940;30.280;2023-06-24T02:37:58;3.35;;;1.80;;
41512;SDS011;27244;59.940;30.280;2023-06-24T02:40:25;4.20;;;2.05;;
41512;SDS011;27244;59.940;30.280;2023-06-24T02:42:53;2.70;;;2.17;;
41512;SDS011;27244;59.940;30.280;2023-06-24T02:45:20;4.55;;;1.95;;
41512;SDS011;27244;59.940;30.280;2023-06-24T02:47:48;3.50;;;2.00;;
41512;SDS011;27244;59.940;30.280;2023-06-24T02:50:16;5.45;;;2.03;;
41512;SDS011;27244;59.940;30.280;2023-06-24T02:52:44;4.07;;;2.15;;
41512;SDS011;27244;59.940;30.280;2023-06-24T02:55:15;2.30;;;1.88;;
41512;SDS011;27244;59.940;30.280;2023-06-24T02:57:48;3.08;;;1.90;;
41512;SDS011;27244;59.940;30.280;2023-06-24T03:00:42;3.10;;;1.92;;
41512;SDS011;27244;59.940;30.280;2023-06-24T03:03:09;5.07;;;2.35;;
41512;SDS011;27244;59.940;30.280;2023-06-24T03:05:43;3.67;;;2.30;;
41512;SDS011;27244;59.940;30.280;2023-06-24T03:08:14;2.50;;;1.75;;
41512;SDS011;27244;59.940;30.280;2023-06-24T03:10:44;3.00;;;1.90;;
41512;SDS011;27244;59.940;30.280;2023-06-24T03:13:17;3.70;;;2.20;;
41512;SDS011;27244;59.940;30.280;2023-06-24T03:15:49;2.65;;;1.80;;
41512;SDS011;27244;59.940;30.280;2023-06-24T03:18:16;3.97;;;2.00;;
41512;SDS011;27244;59.940;30.280;2023-06-24T03:20:46;4.20;;;2.40;;
41512;SDS011;27244;59.940;30.280;2023-06-24T03:23:17;2.67;;;2.00;;
41512;SDS011;27244;59.940;30.280;2023-06-24T03:25:45;3.70;;;2.22;;
41512;SDS011;27244;59.940;30.280;2023-06-24T03:28:12;3.17;;;2.15;;
41512;SDS011;27244;59.940;30.280;2023-06-24T03:30:46;4.07;;;2.22;;
41512;SDS011;27244;59.940;30.280;2023-06-24T03:33:17;3.22;;;1.95;;
41512;SDS011;27244;59.940;30.280;2023-06-24T03:35:45;3.08;;;2.10;;
41512;SDS011;27244;59.940;30.280;2023-06-24T03:38:16;3.63;;;1.80;;
41512;SDS011;27244;59.940;30.280;2023-06-24T03:40:46;2.55;;;2.10;;
41512;SDS011;27244;59.940;30.280;2023-06-24T03:43:13;3.05;;;2.17;;
41512;SDS011;27244;59.940;30.280;2023-06-24T03:45:40;4.13;;;2.50;;
41512;SDS011;27244;59.940;30.280;2023-06-24T03:48:07;2.88;;;2.17;;
41512;SDS011;27244;59.940;30.280;2023-06-24T03:50:34;2.90;;;2.13;;
41512;SDS011;27244;59.940;30.280;2023-06-24T03:53:02;3.13;;;2.22;;
41512;SDS011;27244;59.940;30.280;2023-06-24T03:55:29;3.22;;;2.20;;
41512;SDS011;27244;59.940;30.280;2023-06-24T03:57:58;3.42;;;2.00;;
41512;SDS011;27244;59.940;30.280;2023-06-24T04:00:26;4.75;;;2.45;;
41512;SDS011;27244;59.940;30.280;2023-06-24T04:02:53;3.00;;;2.03;;
41512;SDS011;27244;59.940;30.280;2023-06-24T04:05:20;4.65;;;2.60;;
41512;SDS011;27244;59.940;30.280;2023-06-24T04:07:48;3.70;;;2.25;;
41512;SDS011;27244;59.940;30.280;2023-06-24T04:10:16;3.00;;;2.13;;
41512;SDS011;27244;59.940;30.280;2023-06-24T04:12:44;3.00;;;1.98;;
41512;SDS011;27244;59.940;30.280;2023-06-24T04:15:12;2.95;;;2.22;;
41512;SDS011;27244;59.940;30.280;2023-06-24T04:17:39;3.50;;;2.05;;
41512;SDS011;27244;59.940;30.280;2023-06-24T04:20:06;4.05;;;2.10;;
41512;SDS011;27244;59.940;30.280;2023-06-24T04:22:35;2.40;;;1.80;;
41512;SDS011;27244;59.940;30.280;2023-06-24T04:25:04;3.58;;;2.50;;
41512;SDS011;27244;59.940;30.280;2023-06-24T04:27:32;3.17;;;2.25;;
41512;SDS011;27244;59.940;30.280;2023-06-24T04:29:59;3.38;;;2.13;;
41512;SDS011;27244;59.940;30.280;2023-06-24T04:32:27;3.05;;;2.10;;
41512;SDS011;27244;59.940;30.280;2023-06-24T04:34:54;3.90;;;2.20;;
41512;SDS011;27244;59.940;30.280;2023-06-24T04:37:21;3.30;;;2.55;;
41512;SDS011;27244;59.940;30.280;2023-06-24T04:39:49;6.25;;;3.03;;
41512;SDS011;27244;59.940;30.280;2023-06-24T04:42:16;2.45;;;2.22;;
41512;SDS011;27244;59.940;30.280;2023-06-24T04:44:43;2.92;;;2.20;;
41512;SDS011;27244;59.940;30.280;2023-06-24T04:47:10;4.00;;;2.40;;
41512;SDS011;27244;59.940;30.280;2023-06-24T04:49:40;2.35;;;2.13;;
41512;SDS011;27244;59.940;30.280;2023-06-24T04:52:07;2.50;;;2.13;;
41512;SDS011;27244;59.940;30.280;2023-06-24T04:54:34;3.50;;;2.47;;
41512;SDS011;27244;59.940;30.280;2023-06-24T04:57:01;3.28;;;2.20;;
41512;SDS011;27244;59.940;30.280;2023-06-24T04:59:28;4.35;;;2.50;;
41512;SDS011;27244;59.940;30.280;2023-06-24T05:01:55;3.42;;;2.30;;
41512;SDS011;27244;59.940;30.280;2023-06-24T05:04:22;2.78;;;2.38;;
41512;SDS011;27244;59.940;30.280;2023-06-24T05:06:50;3.97;;;2.20;;
41512;SDS011;27244;59.940;30.280;2023-06-24T05:09:17;3.47;;;2.60;;
41512;SDS011;27244;59.940;30.280;2023-06-24T05:11:44;3.25;;;2.28;;
41512;SDS011;27244;59.940;30.280;2023-06-24T05:14:11;3.42;;;2.22;;
41512;SDS011;27244;59.940;30.280;2023-06-24T05:16:38;3.70;;;2.55;;
41512;SDS011;27244;59.940;30.280;2023-06-24T05:19:05;3.08;;;2.45;;
41512;SDS011;27244;59.940;30.280;2023-06-24T05:21:32;4.15;;;2.95;;
41512;SDS011;27244;59.940;30.280;2023-06-24T05:24:00;2.97;;;1.98;;
41512;SDS011;27244;59.940;30.280;2023-06-24T05:26:28;3.17;;;2.50;;
41512;SDS011;27244;59.940;30.280;2023-06-24T05:28:54;2.47;;;2.03;;
41512;SDS011;27244;59.940;30.280;2023-06-24T05:31:21;3.47;;;2.25;;
41512;SDS011;27244;59.940;30.280;2023-06-24T05:33:48;3.83;;;2.33;;
41512;SDS011;27244;59.940;30.280;2023-06-24T05:36:15;3.63;;;2.60;;
41512;SDS011;27244;59.940;30.280;2023-06-24T05:38:42;3.92;;;2.45;;
41512;SDS011;27244;59.940;30.280;2023-06-24T05:41:10;3.33;;;2.30;;
41512;SDS011;27244;59.940;30.280;2023-06-24T05:43:37;3.70;;;2.28;;
41512;SDS011;27244;59.940;30.280;2023-06-24T05:46:05;3.08;;;2.50;;
41512;SDS011;27244;59.940;30.280;2023-06-24T05:48:32;3.28;;;2.58;;
41512;SDS011;27244;59.940;30.280;2023-06-24T05:50:59;3.88;;;2.50;;
41512;SDS011;27244;59.940;30.280;2023-06-24T05:53:26;3.88;;;2.75;;
41512;SDS011;27244;59.940;30.280;2023-06-24T05:55:53;2.88;;;2.55;;
41512;SDS011;27244;59.940;30.280;2023-06-24T05:58:21;3.15;;;2.25;;
41512;SDS011;27244;59.940;30.280;2023-06-24T06:00:48;3.10;;;2.40;;
41512;SDS011;27244;59.940;30.280;2023-06-24T06:03:15;3.22;;;2.40;;
41512;SDS011;27244;59.940;30.280;2023-06-24T06:05:46;4.93;;;2.67;;
41512;SDS011;27244;59.940;30.280;2023-06-24T06:08:15;2.80;;;2.10;;
41512;SDS011;27244;59.940;30.280;2023-06-24T06:10:44;2.65;;;2.25;;
41512;SDS011;27244;59.940;30.280;2023-06-24T06:13:11;2.50;;;2.25;;
41512;SDS011;27244;59.940;30.280;2023-06-24T06:15:40;3.10;;;2.17;;
41512;SDS011;27244;59.940;30.280;2023-06-24T06:18:07;2.75;;;2.45;;
41512;SDS011;27244;59.940;30.280;2023-06-24T06:20:36;2.80;;;2.42;;
41512;SDS011;27244;59.940;30.280;2023-06-24T06:23:03;2.60;;;2.33;;
41512;SDS011;27244;59.940;30.280;2023-06-24T06:25:30;2.90;;;2.20;;
41512;SDS011;27244;59.940;30.280;2023-06-24T06:27:57;2.92;;;2.50;;
41512;SDS011;27244;59.940;30.280;2023-06-24T06:30:24;2.83;;;2.30;;
41512;SDS011;27244;59.940;30.280;2023-06-24T06:32:53;3.17;;;2.30;;
41512;SDS011;27244;59.940;30.280;2023-06-24T06:35:19;3.55;;;2.10;;
41512;SDS011;27244;59.940;30.280;2023-06-24T06:37:46;2.65;;;2.30;;
41512;SDS011;27244;59.940;30.280;2023-06-24T06:42:44;3.67;;;2.28;;
41512;SDS011;27244;59.940;30.280;2023-06-24T06:45:11;2.67;;;2.13;;
41512;SDS011;27244;59.940;30.280;2023-06-24T06:47:38;3.47;;;2.20;;
41512;SDS011;27244;59.940;30.280;2023-06-24T06:50:07;2.55;;;2.10;;
41512;SDS011;27244;59.940;30.280;2023-06-24T06:52:34;3.42;;;2.40;;
41512;SDS011;27244;59.940;30.280;2023-06-24T06:55:01;3.85;;;2.70;;
41512;SDS011;27244;59.940;30.280;2023-06-24T06:57:29;3.13;;;2.40;;
41512;SDS011;27244;59.940;30.280;2023-06-24T06:59:57;2.80;;;2.05;;
41512;SDS011;27244;59.940;30.280;2023-06-24T07:02:24;3.20;;;2.53;;
41512;SDS011;27244;59.940;30.280;2023-06-24T07:04:51;2.80;;;2.22;;
41512;SDS011;27244;59.940;30.280;2023-06-24T07:07:22;2.80;;;2.30;;
41512;SDS011;27244;59.940;30.280;2023-06-24T07:12:17;2.45;;;2.00;;
41512;SDS011;27244;59.940;30.280;2023-06-24T07:14:46;2.85;;;2.45;;
41512;SDS011;27244;59.940;30.280;2023-06-24T07:17:13;4.22;;;2.60;;
41512;SDS011;27244;59.940;30.280;2023-06-24T07:19:40;2.45;;;2.25;;
41512;SDS011;27244;59.940;30.280;2023-06-24T07:22:07;3.97;;;2.60;;
41512;SDS011;27244;59.940;30.280;2023-06-24T07:24:38;3.70;;;2.10;;
41512;SDS011;27244;59.940;30.280;2023-06-24T07:27:05;2.78;;;2.47;;
41512;SDS011;27244;59.940;30.280;2023-06-24T07:29:33;4.10;;;2.60;;
41512;SDS011;27244;59.940;30.280;2023-06-24T07:32:00;2.65;;;2.10;;
41512;SDS011;27244;59.940;30.280;2023-06-24T07:34:28;2.55;;;2.35;;
41512;SDS011;27244;59.940;30.280;2023-06-24T07:36:55;3.67;;;2.35;;
41512;SDS011;27244;59.940;30.280;2023-06-24T07:39:22;2.47;;;2.15;;
41512;SDS011;27244;59.940;30.280;2023-06-24T07:41:51;3.97;;;2.63;;
41512;SDS011;27244;59.940;30.280;2023-06-24T07:44:20;4.97;;;2.60;;
41512;SDS011;27244;59.940;30.280;2023-06-24T07:46:47;2.88;;;2.20;;
41512;SDS011;27244;59.940;30.280;2023-06-24T07:49:16;2.80;;;2.25;;
41512;SDS011;27244;59.940;30.280;2023-06-24T07:51:46;3.22;;;2.40;;
41512;SDS011;27244;59.940;30.280;2023-06-24T07:54:13;3.28;;;2.67;;
41512;SDS011;27244;59.940;30.280;2023-06-24T07:56:40;2.92;;;2.50;;
41512;SDS011;27244;59.940;30.280;2023-06-24T07:59:08;2.60;;;2.35;;
41512;SDS011;27244;59.940;30.280;2023-06-24T08:01:35;3.53;;;2.15;;
41512;SDS011;27244;59.940;30.280;2023-06-24T08:04:02;3.58;;;2.50;;
41512;SDS011;27244;59.940;30.280;2023-06-24T08:06:29;2.60;;;2.40;;
41512;SDS011;27244;59.940;30.280;2023-06-24T08:08:56;3.13;;;2.20;;
41512;SDS011;27244;59.940;30.280;2023-06-24T08:11:23;3.03;;;2.22;;
41512;SDS011;27244;59.940;30.280;2023-06-24T08:13:50;3.28;;;2.30;;
41512;SDS011;27244;59.940;30.280;2023-06-24T08:16:19;2.63;;;2.20;;
41512;SDS011;27244;59.940;30.280;2023-06-24T08:18:46;4.68;;;2.50;;
41512;SDS011;27244;59.940;30.280;2023-06-24T08:21:13;3.13;;;2.40;;
41512;SDS011;27244;59.940;30.280;2023-06-24T08:23:40;2.65;;;2.40;;
41512;SDS011;27244;59.940;30.280;2023-06-24T08:26:07;2.10;;;1.90;;
41512;SDS011;27244;59.940;30.280;2023-06-24T08:28:34;3.38;;;2.20;;
41512;SDS011;27244;59.940;30.280;2023-06-24T08:31:02;3.58;;;1.92;;
41512;SDS011;27244;59.940;30.280;2023-06-24T08:33:30;2.58;;;1.75;;
41512;SDS011;27244;59.940;30.280;2023-06-24T08:35:57;3.08;;;2.30;;
41512;SDS011;27244;59.940;30.280;2023-06-24T08:38:24;4.82;;;2.25;;
41512;SDS011;27244;59.940;30.280;2023-06-24T08:40:52;2.33;;;2.00;;
41512;SDS011;27244;59.940;30.280;2023-06-24T08:43:19;2.20;;;2.00;;
41512;SDS011;27244;59.940;30.280;2023-06-24T08:45:46;2.90;;;2.35;;
41512;SDS011;27244;59.940;30.280;2023-06-24T08:48:14;3.00;;;2.38;;
41512;SDS011;27244;59.940;30.280;2023-06-24T08:50:44;2.38;;;2.00;;
41512;SDS011;27244;59.940;30.280;2023-06-24T08:53:17;2.30;;;1.90;;
41512;SDS011;27244;59.940;30.280;2023-06-24T08:55:45;2.72;;;2.20;;
41512;SDS011;27244;59.940;30.280;2023-06-24T08:58:13;3.15;;;2.28;;
41512;SDS011;27244;59.940;30.280;2023-06-24T09:00:40;3.10;;;2.30;;
41512;SDS011;27244;59.940;30.280;2023-06-24T09:03:08;2.38;;;2.17;;
41512;SDS011;27244;59.940;30.280;2023-06-24T09:05:35;3.28;;;2.40;;
41512;SDS011;27244;59.940;30.280;2023-06-24T09:08:03;2.20;;;1.90;;
41512;SDS011;27244;59.940;30.280;2023-06-24T09:10:31;2.72;;;2.35;;
41512;SDS011;27244;59.940;30.280;2023-06-24T09:12:59;2.13;;;1.88;;
41512;SDS011;27244;59.940;30.280;2023-06-24T09:15:29;2.38;;;2.08;;
41512;SDS011;27244;59.940;30.280;2023-06-24T09:18:00;2.20;;;1.98;;
41512;SDS011;27244;59.940;30.280;2023-06-24T09:20:31;2.40;;;1.95;;
41512;SDS011;27244;59.940;30.280;2023-06-24T09:23:08;2.70;;;1.92;;
41512;SDS011;27244;59.940;30.280;2023-06-24T09:25:37;2.53;;;2.22;;
41512;SDS011;27244;59.940;30.280;2023-06-24T09:28:04;2.15;;;1.75;;
41512;SDS011;27244;59.940;30.280;2023-06-24T09:30:31;3.80;;;1.98;;
41512;SDS011;27244;59.940;30.280;2023-06-24T09:33:00;2.38;;;2.00;;
41512;SDS011;27244;59.940;30.280;2023-06-24T09:35:27;2.33;;;1.98;;
41512;SDS011;27244;59.940;30.280;2023-06-24T09:37:55;3.25;;;1.85;;
41512;SDS011;27244;59.940;30.280;2023-06-24T09:40:25;2.75;;;2.22;;
41512;SDS011;27244;59.940;30.280;2023-06-24T09:42:54;4.68;;;1.90;;
41512;SDS011;27244;59.940;30.280;2023-06-24T09:45:23;2.83;;;2.03;;
41512;SDS011;27244;59.940;30.280;2023-06-24T09:47:51;4.55;;;2.05;;
41512;SDS011;27244;59.940;30.280;2023-06-24T09:50:18;3.42;;;1.98;;
41512;SDS011;27244;59.940;30.280;2023-06-24T09:52:45;3.63;;;2.15;;
41512;SDS011;27244;59.940;30.280;2023-06-24T09:55:14;3.38;;;1.92;;
41512;SDS011;27244;59.940;30.280;2023-06-24T09:57:45;3.05;;;2.00;;
41512;SDS011;27244;59.940;30.280;2023-06-24T10:00:13;2.08;;;1.85;;
41512;SDS011;27244;59.940;30.280;2023-06-24T10:02:42;2.25;;;2.05;;
41512;SDS011;27244;59.940;30.280;2023-06-24T10:05:10;3.85;;;1.90;;
41512;SDS011;27244;59.940;30.280;2023-06-24T10:07:39;2.83;;;2.25;;
41512;SDS011;27244;59.940;30.280;2023-06-24T10:10:07;2.40;;;1.98;;
41512;SDS011;27244;59.940;30.280;2023-06-24T10:12:38;4.32;;;2.15;;
41512;SDS011;27244;59.940;30.280;2023-06-24T10:15:06;3.55;;;2.28;;
41512;SDS011;27244;59.940;30.280;2023-06-24T10:17:38;3.25;;;2.05;;
41512;SDS011;27244;59.940;30.280;2023-06-24T10:20:06;2.50;;;2.10;;
41512;SDS011;27244;59.940;30.280;2023-06-24T10:22:33;3.22;;;2.00;;
41512;SDS011;27244;59.940;30.280;2023-06-24T10:25:02;3.42;;;2.08;;
41512;SDS011;27244;59.940;30.280;2023-06-24T10:27:37;2.63;;;2.00;;
41512;SDS011;27244;59.940;30.280;2023-06-24T10:30:09;4.15;;;2.00;;
41512;SDS011;27244;59.940;30.280;2023-06-24T10:32:44;3.47;;;2.08;;
41512;SDS011;27244;59.940;30.280;2023-06-24T10:35:25;2.08;;;1.88;;
41512;SDS011;27244;59.940;30.280;2023-06-24T10:37:57;3.75;;;2.63;;
41512;SDS011;27244;59.940;30.280;2023-06-24T10:40:35;2.50;;;2.05;;
41512;SDS011;27244;59.940;30.280;2023-06-24T10:43:22;2.85;;;2.03;;
41512;SDS011;27244;59.940;30.280;2023-06-24T10:45:54;2.80;;;2.08;;
41512;SDS011;27244;59.940;30.280;2023-06-24T10:48:22;1.77;;;1.60;;
41512;SDS011;27244;59.940;30.280;2023-06-24T10:50:50;5.68;;;2.00;;
41512;SDS011;27244;59.940;30.280;2023-06-24T10:53:27;3.33;;;1.92;;
41512;SDS011;27244;59.940;30.280;2023-06-24T10:55:56;3.63;;;1.83;;
41512;SDS011;27244;59.940;30.280;2023-06-24T10:58:24;2.75;;;1.88;;
41512;SDS011;27244;59.940;30.280;2023-06-24T11:00:51;2.40;;;2.10;;
41512;SDS011;27244;59.940;30.280;2023-06-24T11:03:19;2.17;;;1.83;;
41512;SDS011;27244;59.940;30.280;2023-06-24T11:05:48;2.80;;;1.90;;
41512;SDS011;27244;59.940;30.280;2023-06-24T11:08:15;1.98;;;1.75;;
41512;SDS011;27244;59.940;30.280;2023-06-24T11:10:43;2.15;;;1.95;;
41512;SDS011;27244;59.940;30.280;2023-06-24T11:13:11;2.15;;;1.95;;
41512;SDS011;27244;59.940;30.280;2023-06-24T11:15:38;2.88;;;2.00;;
41512;SDS011;27244;59.940;30.280;2023-06-24T11:18:07;1.83;;;1.63;;
41512;SDS011;27244;59.940;30.280;2023-06-24T11:20:37;2.33;;;1.80;;
41512;SDS011;27244;59.940;30.280;2023-06-24T11:23:09;2.05;;;1.85;;
41512;SDS011;27244;59.940;30.280;2023-06-24T11:25:39;2.47;;;1.95;;
41512;SDS011;27244;59.940;30.280;2023-06-24T11:28:13;2.10;;;1.90;;
41512;SDS011;27244;59.940;30.280;2023-06-24T11:30:41;2.63;;;1.83;;
41512;SDS011;27244;59.940;30.280;2023-06-24T11:33:08;2.97;;;2.00;;
41512;SDS011;27244;59.940;30.280;2023-06-24T11:35:39;2.38;;;1.70;;
41512;SDS011;27244;59.940;30.280;2023-06-24T11:38:06;2.03;;;1.88;;
41512;SDS011;27244;59.940;30.280;2023-06-24T11:40:35;1.95;;;1.63;;
41512;SDS011;27244;59.940;30.280;2023-06-24T11:43:02;1.75;;;1.52;;
41512;SDS011;27244;59.940;30.280;2023-06-24T11:45:29;2.42;;;1.88;;
41512;SDS011;27244;59.940;30.280;2023-06-24T11:48:01;1.80;;;1.70;;
41512;SDS011;27244;59.940;30.280;2023-06-24T11:50:31;2.53;;;1.70;;
41512;SDS011;27244;59.940;30.280;2023-06-24T11:52:59;2.10;;;1.70;;
41512;SDS011;27244;59.940;30.280;2023-06-24T11:55:30;1.70;;;1.60;;
41512;SDS011;27244;59.940;30.280;2023-06-24T11:57:58;1.90;;;1.60;;
41512;SDS011;27244;59.940;30.280;2023-06-24T12:00:27;1.98;;;1.77;;
41512;SDS011;27244;59.940;30.280;2023-06-24T12:02:55;2.20;;;1.70;;
41512;SDS011;27244;59.940;30.280;2023-06-24T12:05:23;1.65;;;1.50;;
41512;SDS011;27244;59.940;30.280;2023-06-24T12:08:01;2.05;;;1.65;;
41512;SDS011;27244;59.940;30.280;2023-06-24T12:10:29;5.00;;;1.67;;
41512;SDS011;27244;59.940;30.280;2023-06-24T12:12:58;4.78;;;1.90;;
41512;SDS011;27244;59.940;30.280;2023-06-24T12:15:26;3.83;;;1.55;;
41512;SDS011;27244;59.940;30.280;2023-06-24T12:17:54;7.03;;;1.90;;
41512;SDS011;27244;59.940;30.280;2023-06-24T12:20:21;6.07;;;2.22;;
41512;SDS011;27244;59.940;30.280;2023-06-24T12:22:48;8.77;;;1.88;;
41512;SDS011;27244;59.940;30.280;2023-06-24T12:25:17;3.25;;;1.73;;
41512;SDS011;27244;59.940;30.280;2023-06-24T12:27:44;8.98;;;2.30;;
41512;SDS011;27244;59.940;30.280;2023-06-24T12:30:12;2.53;;;1.90;;
41512;SDS011;27244;59.940;30.280;2023-06-24T12:32:41;5.10;;;1.77;;
41512;SDS011;27244;59.940;30.280;2023-06-24T12:35:09;3.78;;;1.50;;
41512;SDS011;27244;59.940;30.280;2023-06-24T12:37:36;7.10;;;2.08;;
41512;SDS011;27244;59.940;30.280;2023-06-24T12:40:13;2.78;;;1.65;;
41512;SDS011;27244;59.940;30.280;2023-06-24T12:42:41;2.63;;;1.90;;
41512;SDS011;27244;59.940;30.280;2023-06-24T12:45:08;5.60;;;1.90;;
41512;SDS011;27244;59.940;30.280;2023-06-24T12:47:36;2.38;;;1.42;;
41512;SDS011;27244;59.940;30.280;2023-06-24T12:50:03;2.95;;;1.90;;
41512;SDS011;27244;59.940;30.280;2023-06-24T12:52:32;2.47;;;1.50;;
41512;SDS011;27244;59.940;30.280;2023-06-24T12:55:00;2.53;;;1.60;;
41512;SDS011;27244;59.940;30.280;2023-06-24T12:57:29;4.00;;;1.92;;
41512;SDS011;27244;59.940;30.280;2023-06-24T12:59:57;2.95;;;1.80;;
41512;SDS011;27244;59.940;30.280;2023-06-24T13:02:24;3.20;;;2.20;;
41512;SDS011;27244;59.940;30.280;2023-06-24T13:04:51;8.30;;;3.38;;
41512;SDS011;27244;59.940;30.280;2023-06-24T13:07:18;8.70;;;2.85;;
41512;SDS011;27244;59.940;30.280;2023-06-24T13:09:45;7.20;;;3.65;;
41512;SDS011;27244;59.940;30.280;2023-06-24T13:12:12;6.03;;;2.78;;
41512;SDS011;27244;59.940;30.280;2023-06-24T13:14:39;6.03;;;2.67;;
41512;SDS011;27244;59.940;30.280;2023-06-24T13:17:07;5.97;;;2.80;;
41512;SDS011;27244;59.940;30.280;2023-06-24T13:19:34;5.63;;;2.60;;
41512;SDS011;27244;59.940;30.280;2023-06-24T13:22:01;6.03;;;2.22;;
41512;SDS011;27244;59.940;30.280;2023-06-24T13:24:28;4.90;;;2.60;;
41512;SDS011;27244;59.940;30.280;2023-06-24T13:26:55;4.80;;;2.20;;
41512;SDS011;27244;59.940;30.280;2023-06-24T13:29:22;5.80;;;2.08;;
41512;SDS011;27244;59.940;30.280;2023-06-24T13:31:49;3.13;;;1.75;;
41512;SDS011;27244;59.940;30.280;2023-06-24T13:34:18;6.72;;;3.60;;
41512;SDS011;27244;59.940;30.280;2023-06-24T13:36:45;11.15;;;7.57;;
41512;SDS011;27244;59.940;30.280;2023-06-24T13:39:12;28.45;;;17.55;;
41512;SDS011;27244;59.940;30.280;2023-06-24T13:41:42;24.85;;;16.42;;
41512;SDS011;27244;59.940;30.280;2023-06-24T13:44:10;22.63;;;14.05;;
41512;SDS011;27244;59.940;30.280;2023-06-24T13:46:37;14.98;;;9.35;;
41512;SDS011;27244;59.940;30.280;2023-06-24T13:49:05;11.18;;;7.07;;
41512;SDS011;27244;59.940;30.280;2023-06-24T13:51:33;7.13;;;5.03;;
41512;SDS011;27244;59.940;30.280;2023-06-24T13:54:00;6.05;;;4.32;;
41512;SDS011;27244;59.940;30.280;2023-06-24T13:56:30;6.93;;;4.25;;
41512;SDS011;27244;59.940;30.280;2023-06-24T13:58:58;7.07;;;3.90;;
41512;SDS011;27244;59.940;30.280;2023-06-24T14:01:24;5.60;;;3.28;;
41512;SDS011;27244;59.940;30.280;2023-06-24T14:03:54;5.28;;;3.40;;
41512;SDS011;27244;59.940;30.280;2023-06-24T14:06:22;6.88;;;3.70;;
41512;SDS011;27244;59.940;30.280;2023-06-24T14:08:51;5.93;;;3.13;;
41512;SDS011;27244;59.940;30.280;2023-06-24T14:11:18;5.75;;;2.67;;
41512;SDS011;27244;59.940;30.280;2023-06-24T14:13:45;5.65;;;2.90;;
41512;SDS011;27244;59.940;30.280;2023-06-24T14:16:12;6.10;;;3.00;;
41512;SDS011;27244;59.940;30.280;2023-06-24T14:18:39;3.85;;;2.65;;
41512;SDS011;27244;59.940;30.280;2023-06-24T14:21:07;4.57;;;2.75;;
41512;SDS011;27244;59.940;30.280;2023-06-24T14:23:34;3.83;;;2.58;;
41512;SDS011;27244;59.940;30.280;2023-06-24T14:26:03;4.03;;;2.30;;
41512;SDS011;27244;59.940;30.280;2023-06-24T14:28:30;6.40;;;3.20;;
41512;SDS011;27244;59.940;30.280;2023-06-24T14:30:57;7.63;;;2.75;;
41512;SDS011;27244;59.940;30.280;2023-06-24T14:33:24;11.65;;;2.78;;
41512;SDS011;27244;59.940;30.280;2023-06-24T14:35:51;4.07;;;2.20;;
41512;SDS011;27244;59.940;30.280;2023-06-24T14:38:18;3.85;;;2.20;;
41512;SDS011;27244;59.940;30.280;2023-06-24T14:40:45;3.80;;;2.08;;
41512;SDS011;27244;59.940;30.280;2023-06-24T14:43:14;4.40;;;2.10;;
41512;SDS011;27244;59.940;30.280;2023-06-24T14:45:41;4.43;;;2.13;;
41512;SDS011;27244;59.940;30.280;2023-06-24T14:48:08;4.13;;;2.10;;